createdAt,value
2019-05-20T00:00:29.013Z,18.53
2019-05-20T00:02:58.533Z,18.90
2019-05-20T00:05:29.250Z,16.07
2019-05-20T00:07:59.010Z,20.47
2019-05-20T00:10:28.578Z,20.00
2019-05-20T00:12:58.247Z,20.33
2019-05-20T00:15:27.761Z,19.60
2019-05-20T00:17:57.483Z,21.63
2019-05-20T00:20:27.002Z,22.43
2019-05-20T00:22:56.731Z,24.60
2019-05-20T00:25:26.288Z,23.20
2019-05-20T00:27:55.840Z,24.30
2019-05-20T00:30:25.390Z,25.53
2019-05-20T00:32:55.106Z,25.40
2019-05-20T00:35:24.941Z,24.00
2019-05-20T00:37:54.586Z,24.00
2019-05-20T00:40:24.148Z,25.30
2019-05-20T00:42:53.867Z,25.90
2019-05-20T00:45:23.453Z,27.60
2019-05-20T00:47:53.611Z,26.87
2019-05-20T00:50:23.632Z,27.47
2019-05-20T00:52:53.164Z,29.37
2019-05-20T00:55:28.369Z,27.17
2019-05-20T00:57:57.933Z,29.00
2019-05-20T01:00:27.773Z,28.40
2019-05-20T01:02:57.697Z,27.60
2019-05-20T01:05:27.358Z,28.83
2019-05-20T01:07:56.957Z,26.73
2019-05-20T01:10:26.537Z,28.57
2019-05-20T01:12:56.227Z,29.80
2019-05-20T01:15:26.320Z,27.17
2019-05-20T01:17:55.860Z,27.90
2019-05-20T01:20:25.460Z,28.83
2019-05-20T01:22:55.015Z,26.30
2019-05-20T01:25:24.538Z,28.63
2019-05-20T01:27:54.222Z,27.30
2019-05-20T01:30:24.916Z,27.60
2019-05-20T01:32:54.541Z,27.53
2019-05-20T01:35:24.071Z,27.50
2019-05-20T01:37:53.666Z,27.90
2019-05-20T01:40:23.186Z,27.67
2019-05-20T01:42:52.827Z,29.63
2019-05-20T01:45:22.374Z,30.27
2019-05-20T01:47:51.910Z,30.83
2019-05-20T01:50:22.577Z,30.63
2019-05-20T01:52:52.237Z,32.00
2019-05-20T01:55:21.849Z,31.20
2019-05-20T01:57:51.449Z,31.83
2019-05-20T02:00:21.167Z,31.73
2019-05-20T02:02:50.874Z,32.47
2019-05-20T02:05:20.535Z,30.90
2019-05-20T02:07:50.128Z,35.53
2019-05-20T02:10:20.849Z,30.23
2019-05-20T02:12:50.681Z,32.87
2019-05-20T02:15:26.133Z,31.43
2019-05-20T02:17:55.846Z,33.00
2019-05-20T02:20:25.449Z,34.83
2019-05-20T02:22:57.817Z,33.30
2019-05-20T02:25:27.442Z,32.97
2019-05-20T02:27:57.008Z,33.50
2019-05-20T02:30:27.493Z,34.93
2019-05-20T02:32:57.038Z,33.33
2019-05-20T02:35:26.576Z,34.17
2019-05-20T02:37:56.169Z,32.10
2019-05-20T02:40:26.669Z,36.97
2019-05-20T02:42:56.207Z,35.27
2019-05-20T02:45:25.800Z,32.37
2019-05-20T02:47:55.496Z,34.07
2019-05-20T02:50:25.188Z,34.07
2019-05-20T02:52:54.993Z,32.80
2019-05-20T02:55:24.530Z,33.47
2019-05-20T02:57:54.040Z,32.87
2019-05-20T03:00:23.648Z,30.87
2019-05-20T03:02:53.245Z,33.43
2019-05-20T03:05:22.740Z,34.77
2019-05-20T03:07:52.430Z,31.13
2019-05-20T03:10:22.054Z,34.00
2019-05-20T03:12:51.866Z,32.83
2019-05-20T03:15:21.386Z,31.93
2019-05-20T03:17:51.084Z,32.60
2019-05-20T03:20:20.638Z,31.90
2019-05-20T03:22:50.163Z,32.13
2019-05-20T03:25:19.928Z,31.43
2019-05-20T03:27:49.465Z,31.60
2019-05-20T03:30:19.250Z,31.03
2019-05-20T03:32:48.893Z,32.87
2019-05-20T03:35:18.814Z,33.87
2019-05-20T03:37:48.423Z,33.00
2019-05-20T03:40:17.975Z,34.80
2019-05-20T03:42:47.519Z,34.47
2019-05-20T03:45:17.302Z,36.03
2019-05-20T03:47:46.921Z,33.70
2019-05-20T03:50:16.584Z,34.20
2019-05-20T03:52:46.202Z,35.30
2019-05-20T03:55:16.013Z,34.40
2019-05-20T03:57:45.882Z,33.50
2019-05-20T04:00:15.714Z,35.80
2019-05-20T04:02:45.471Z,35.50
2019-05-20T04:05:15.036Z,34.97
2019-05-20T04:07:44.663Z,35.03
2019-05-20T04:10:14.350Z,35.73
2019-05-20T04:12:43.948Z,34.33
2019-05-20T04:15:13.954Z,33.73
2019-05-20T04:17:43.607Z,35.70
2019-05-20T04:20:13.173Z,35.90
2019-05-20T04:22:42.709Z,40.80
2019-05-20T04:25:12.298Z,35.07
2019-05-20T04:27:41.822Z,34.50
2019-05-20T04:30:11.660Z,35.90
2019-05-20T04:32:41.207Z,33.70
2019-05-20T04:35:21.922Z,33.33
2019-05-20T04:37:42.351Z,32.83
2019-05-20T04:40:12.610Z,35.07
2019-05-20T04:42:42.205Z,34.63
2019-05-20T04:45:12.981Z,32.77
2019-05-20T04:47:42.517Z,33.00
2019-05-20T04:50:12.600Z,33.73
2019-05-20T04:52:42.196Z,33.30
2019-05-20T04:55:12.048Z,33.37
2019-05-20T04:57:41.560Z,31.33
2019-05-20T05:00:13.464Z,31.50
2019-05-20T05:02:43.805Z,31.67
2019-05-20T05:05:13.655Z,31.20
2019-05-20T05:07:43.204Z,30.77
2019-05-20T05:10:13.715Z,31.50
2019-05-20T05:12:43.246Z,31.20
2019-05-20T05:15:15.255Z,31.80
2019-05-20T05:17:44.768Z,31.70
2019-05-20T05:20:17.860Z,31.70
2019-05-20T05:22:45.746Z,31.40
2019-05-20T05:25:15.365Z,33.40
2019-05-20T05:27:45.178Z,32.43
2019-05-20T05:30:15.953Z,31.93
2019-05-20T05:32:46.476Z,32.00
2019-05-20T05:35:17.631Z,30.80
2019-05-20T05:37:48.180Z,28.23
2019-05-20T05:40:19.666Z,31.80
2019-05-20T05:42:49.246Z,31.93
2019-05-20T05:45:21.826Z,28.00
2019-05-20T05:47:51.358Z,27.90
2019-05-20T05:50:21.000Z,26.97
2019-05-20T05:52:50.600Z,28.53
2019-05-20T05:55:20.122Z,28.47
2019-05-20T05:57:49.725Z,27.90
2019-05-20T06:00:20.087Z,28.50
2019-05-20T06:02:49.693Z,27.90
2019-05-20T06:05:19.242Z,29.07
2019-05-20T06:07:54.608Z,28.30
2019-05-20T06:10:24.283Z,28.53
2019-05-20T06:12:53.794Z,28.60
2019-05-20T06:15:23.727Z,29.23
2019-05-20T06:17:53.362Z,27.73
2019-05-20T06:20:23.050Z,28.77
2019-05-20T06:22:52.637Z,26.93
2019-05-20T06:25:23.262Z,27.83
2019-05-20T06:27:52.875Z,29.80
2019-05-20T06:30:25.668Z,29.00
2019-05-20T06:32:55.179Z,30.97
2019-05-20T06:35:24.677Z,29.90
2019-05-20T06:37:58.999Z,29.53
2019-05-20T06:40:28.496Z,30.83
2019-05-20T06:42:58.439Z,29.17
2019-05-20T06:45:28.133Z,30.07
2019-05-20T06:47:58.638Z,28.23
2019-05-20T06:50:29.718Z,30.50
2019-05-20T06:52:59.396Z,27.63
2019-05-20T06:55:28.912Z,29.73
2019-05-20T06:57:58.642Z,28.87
2019-05-20T07:00:38.940Z,27.10
2019-05-20T07:03:08.478Z,28.30
2019-05-20T07:05:37.985Z,26.77
2019-05-20T07:08:07.521Z,28.40
2019-05-20T07:10:37.553Z,26.67
2019-05-20T07:13:07.087Z,27.40
2019-05-20T07:15:36.898Z,27.20
2019-05-20T07:18:06.401Z,26.17
2019-05-20T07:20:35.911Z,28.03
2019-05-20T07:23:05.457Z,27.73
2019-05-20T07:25:34.996Z,28.10
2019-05-20T07:28:04.615Z,29.10
2019-05-20T07:30:34.616Z,27.37
2019-05-20T07:33:04.266Z,28.63
2019-05-20T07:35:34.872Z,29.20
2019-05-20T07:38:04.395Z,28.57
2019-05-20T07:40:34.530Z,28.60
2019-05-20T07:43:04.336Z,28.07
2019-05-20T07:45:35.320Z,26.27
2019-05-20T07:48:06.660Z,27.40
2019-05-20T07:50:39.284Z,28.57
2019-05-20T07:53:11.432Z,29.40
2019-05-20T07:55:50.850Z,30.00
2019-05-20T07:58:24.103Z,29.33
2019-05-20T08:00:53.722Z,28.57
2019-05-20T08:03:23.262Z,29.50
2019-05-20T08:05:52.781Z,28.13
2019-05-20T08:08:22.363Z,28.80
2019-05-20T08:10:51.913Z,26.40
2019-05-20T08:13:21.505Z,27.27
2019-05-20T08:15:51.106Z,26.97
2019-05-20T08:18:20.767Z,27.90
2019-05-20T08:20:50.355Z,29.80
2019-05-20T08:23:22.951Z,28.10
2019-05-20T08:25:52.485Z,27.87
2019-05-20T08:28:22.037Z,27.93
2019-05-20T08:30:51.577Z,26.80
2019-05-20T08:33:21.197Z,25.87
2019-05-20T08:35:50.693Z,27.33
2019-05-20T08:38:20.305Z,28.53
2019-05-20T08:40:49.800Z,29.03
2019-05-20T08:43:19.318Z,27.37
2019-05-20T08:45:48.839Z,26.87
2019-05-20T08:48:18.446Z,25.50
2019-05-20T08:50:47.951Z,27.53
2019-05-20T08:53:17.478Z,27.90
2019-05-20T08:55:47.099Z,25.07
2019-05-20T08:58:16.738Z,27.33
2019-05-20T09:00:46.276Z,28.03
2019-05-20T09:03:15.954Z,27.33
2019-05-20T09:05:45.625Z,26.70
2019-05-20T09:08:15.342Z,28.47
2019-05-20T09:10:44.990Z,27.10
2019-05-20T09:13:14.586Z,28.40
2019-05-20T09:15:45.559Z,26.83
2019-05-20T09:18:15.138Z,26.83
2019-05-20T09:20:44.758Z,26.83
2019-05-20T09:23:14.330Z,27.83
2019-05-20T09:25:43.930Z,27.40
2019-05-20T09:28:13.780Z,28.57
2019-05-20T09:30:43.594Z,27.03
2019-05-20T09:33:13.517Z,29.00
2019-05-20T09:35:43.468Z,31.73
2019-05-20T09:38:19.973Z,30.13
2019-05-20T09:40:48.876Z,28.70
2019-05-20T09:43:18.627Z,29.03
2019-05-20T09:46:05.275Z,29.20
2019-05-20T09:48:19.454Z,28.33
2019-05-20T09:50:49.083Z,28.43
2019-05-20T09:53:18.626Z,28.40
2019-05-20T09:55:48.215Z,30.13
2019-05-20T09:58:17.814Z,28.33
2019-05-20T10:00:47.314Z,29.20
2019-05-20T10:03:17.242Z,28.53
2019-05-20T10:05:46.908Z,29.50
2019-05-20T10:08:16.445Z,28.90
2019-05-20T10:10:45.955Z,28.30
2019-05-20T10:13:16.009Z,26.90
2019-05-20T10:15:45.576Z,26.50
2019-05-20T10:18:15.164Z,26.87
2019-05-20T10:20:45.111Z,27.90
2019-05-20T10:23:15.980Z,27.83
2019-05-20T10:25:45.945Z,27.53
2019-05-20T10:28:16.504Z,26.87
2019-05-20T10:30:46.075Z,25.47
2019-05-20T10:33:16.650Z,27.57
2019-05-20T10:35:46.223Z,28.23
2019-05-20T10:38:16.985Z,27.17
2019-05-20T10:40:46.625Z,28.20
2019-05-20T10:43:16.172Z,28.10
2019-05-20T10:45:45.918Z,27.57
2019-05-20T10:48:15.988Z,29.00
2019-05-20T10:50:45.590Z,27.40
2019-05-20T10:53:15.227Z,28.87
2019-05-20T10:55:45.135Z,29.57
2019-05-20T10:58:14.705Z,30.20
2019-05-20T11:01:01.121Z,28.40
2019-05-20T11:03:15.480Z,29.37
2019-05-20T11:05:44.992Z,29.00
2019-05-20T11:08:15.084Z,28.67
2019-05-20T11:10:44.658Z,28.53
2019-05-20T11:13:14.185Z,29.27
2019-05-20T11:15:44.867Z,30.73
2019-05-20T11:18:14.499Z,28.40
2019-05-20T11:20:45.211Z,30.07
2019-05-20T11:23:15.042Z,29.60
2019-05-20T11:25:44.701Z,30.37
2019-05-20T11:28:14.421Z,29.43
2019-05-20T11:30:43.961Z,29.20
2019-05-20T11:33:13.553Z,28.20
2019-05-20T11:35:43.057Z,29.33
2019-05-20T11:38:12.868Z,29.67
2019-05-20T11:40:42.445Z,29.20
2019-05-20T11:43:11.999Z,28.63
2019-05-20T11:45:42.573Z,29.00
2019-05-20T11:48:12.146Z,27.13
2019-05-20T11:50:41.692Z,28.57
2019-05-20T11:53:11.240Z,27.50
2019-05-20T11:55:40.762Z,28.47
2019-05-20T11:58:15.647Z,30.07
2019-05-20T12:00:43.014Z,28.07
2019-05-20T12:03:12.592Z,28.83
2019-05-20T12:05:42.231Z,27.83
2019-05-20T12:08:11.875Z,28.77
2019-05-20T12:10:41.456Z,26.80
2019-05-20T12:13:11.342Z,27.10
2019-05-20T12:15:40.929Z,28.60
2019-05-20T12:18:10.513Z,26.30
2019-05-20T12:20:40.361Z,29.27
2019-05-20T12:23:09.877Z,28.57
2019-05-20T12:25:39.434Z,27.80
2019-05-20T12:28:09.111Z,29.83
2019-05-20T12:30:38.909Z,30.57
2019-05-20T12:33:18.573Z,29.80
2019-05-20T12:35:39.725Z,28.70
2019-05-20T12:38:09.603Z,28.20
2019-05-20T12:40:39.134Z,27.50
2019-05-20T12:43:08.704Z,28.80
2019-05-20T12:45:38.630Z,27.73
2019-05-20T12:48:08.132Z,27.83
2019-05-20T12:50:37.842Z,26.50
2019-05-20T12:53:07.346Z,27.40
2019-05-20T12:55:36.853Z,28.60
2019-05-20T12:58:06.396Z,28.70
2019-05-20T13:00:35.918Z,28.03
2019-05-20T13:03:05.552Z,27.27
2019-05-20T13:05:35.271Z,27.93
2019-05-20T13:08:05.720Z,26.80
2019-05-20T13:10:35.510Z,27.57
2019-05-20T13:13:05.163Z,27.17
2019-05-20T13:15:34.713Z,28.77
2019-05-20T13:18:04.391Z,27.50
2019-05-20T13:20:33.943Z,27.50
2019-05-20T13:23:06.505Z,28.07
2019-05-20T13:25:35.124Z,26.33
2019-05-20T13:28:04.802Z,27.40
2019-05-20T13:30:34.376Z,27.27
2019-05-20T13:33:03.948Z,27.30
2019-05-20T13:35:33.650Z,29.23
2019-05-20T13:38:03.158Z,27.17
2019-05-20T13:40:45.623Z,29.13
2019-05-20T13:43:04.346Z,28.30
2019-05-20T13:45:33.872Z,28.67
2019-05-20T13:48:03.764Z,27.20
2019-05-20T13:50:33.407Z,27.20
2019-05-20T13:53:02.954Z,26.57
2019-05-20T13:55:32.620Z,26.23
2019-05-20T13:58:02.257Z,28.00
2019-05-20T14:00:32.302Z,28.60
2019-05-20T14:03:01.899Z,28.67
2019-05-20T14:05:31.424Z,28.83
2019-05-20T14:08:00.942Z,27.37
2019-05-20T14:10:30.485Z,27.00
2019-05-20T14:13:00.466Z,27.60
2019-05-20T14:15:30.993Z,27.33
2019-05-20T14:18:01.625Z,27.40
2019-05-20T14:20:32.137Z,26.83
2019-05-20T14:23:02.069Z,26.20
2019-05-20T14:25:31.750Z,25.67
2019-05-20T14:28:01.290Z,26.23
2019-05-20T14:30:30.969Z,26.87
2019-05-20T14:33:00.581Z,25.50
2019-05-20T14:35:30.114Z,25.60
2019-05-20T14:37:59.717Z,25.70
2019-05-20T14:40:29.247Z,23.87
2019-05-20T14:42:58.960Z,24.30
2019-05-20T14:45:28.688Z,24.33
2019-05-20T14:47:59.246Z,26.33
2019-05-20T14:50:28.786Z,25.53
2019-05-20T14:52:58.334Z,25.70
2019-05-20T14:55:27.915Z,25.37
2019-05-20T14:57:57.479Z,24.40
2019-05-20T15:00:27.128Z,26.77
2019-05-20T15:02:56.955Z,24.93
2019-05-20T15:05:26.719Z,25.43
2019-05-20T15:07:57.263Z,26.30
2019-05-20T15:10:27.184Z,27.27
2019-05-20T15:12:56.736Z,27.70
2019-05-20T15:15:26.352Z,28.60
2019-05-20T15:17:55.923Z,28.00
2019-05-20T15:20:25.518Z,28.53
2019-05-20T15:22:55.358Z,27.70
2019-05-20T15:25:25.962Z,28.57
2019-05-20T15:27:55.696Z,26.90
2019-05-20T15:30:25.254Z,27.07
2019-05-20T15:32:55.114Z,28.87
2019-05-20T15:35:24.853Z,29.40
2019-05-20T15:37:54.586Z,27.03
2019-05-20T15:40:24.760Z,27.70
2019-05-20T15:42:54.349Z,28.20
2019-05-20T15:45:23.905Z,25.30
2019-05-20T15:47:53.470Z,28.10
2019-05-20T15:50:23.130Z,25.70
2019-05-20T15:52:52.804Z,27.90
2019-05-20T15:55:22.612Z,28.03
2019-05-20T15:57:52.132Z,26.57
2019-05-20T16:00:21.969Z,28.07
2019-05-20T16:02:51.586Z,26.70
2019-05-20T16:05:21.152Z,28.10
2019-05-20T16:07:50.725Z,24.97
2019-05-20T16:10:20.358Z,26.17
2019-05-20T16:12:49.961Z,27.03
2019-05-20T16:15:19.536Z,27.47
2019-05-20T16:17:49.086Z,27.60
2019-05-20T16:20:18.728Z,29.57
2019-05-20T16:22:48.400Z,29.63
2019-05-20T16:25:18.163Z,28.63
2019-05-20T16:27:47.672Z,29.60
2019-05-20T16:30:17.825Z,30.80
2019-05-20T16:32:47.386Z,29.60
2019-05-20T16:35:17.171Z,29.23
2019-05-20T16:37:47.280Z,33.90
2019-05-20T16:40:17.276Z,32.43
2019-05-20T16:42:46.875Z,31.20
2019-05-20T16:45:16.540Z,30.03
2019-05-20T16:47:46.137Z,29.77
2019-05-20T16:50:16.057Z,32.30
2019-05-20T16:52:45.577Z,29.63
2019-05-20T16:55:15.325Z,30.47
2019-05-20T16:57:44.981Z,30.60
2019-05-20T17:00:30.618Z,29.80
2019-05-20T17:02:48.297Z,31.40
2019-05-20T17:05:17.998Z,30.30
2019-05-20T17:07:47.607Z,28.63
2019-05-20T17:10:17.500Z,27.60
2019-05-20T17:12:47.029Z,28.03
2019-05-20T17:15:17.113Z,29.93
2019-05-20T17:17:46.627Z,29.03
2019-05-20T17:20:16.637Z,27.60
2019-05-20T17:22:46.274Z,26.33
2019-05-20T17:25:15.979Z,29.33
2019-05-20T17:27:45.542Z,27.30
2019-05-20T17:30:16.133Z,27.67
2019-05-20T17:32:45.669Z,28.17
2019-05-20T17:35:15.323Z,28.10
2019-05-20T17:37:44.931Z,26.87
2019-05-20T17:40:15.810Z,26.17
2019-05-20T17:42:45.602Z,26.03
2019-05-20T17:45:15.734Z,24.23
2019-05-20T17:47:45.463Z,24.80
2019-05-20T17:50:16.554Z,23.70
2019-05-20T17:52:47.073Z,24.30
2019-05-20T17:55:16.843Z,24.30
2019-05-20T17:57:46.610Z,24.27
2019-05-20T18:00:18.299Z,24.90
2019-05-20T18:02:47.872Z,23.67
2019-05-20T18:05:17.591Z,24.30
2019-05-20T18:07:47.093Z,24.07
2019-05-20T18:10:18.647Z,24.27
2019-05-20T18:12:48.679Z,24.33
2019-05-20T18:15:18.529Z,23.20
2019-05-20T18:17:48.388Z,24.50
2019-05-20T18:20:19.133Z,25.10
2019-05-20T18:22:48.858Z,22.80
2019-05-20T18:25:18.785Z,24.00
2019-05-20T18:27:48.368Z,25.10
2019-05-20T18:30:18.129Z,24.90
2019-05-20T18:32:47.647Z,24.80
2019-05-20T18:35:17.775Z,22.60
2019-05-20T18:37:48.438Z,26.37
2019-05-20T18:40:18.078Z,25.50
2019-05-20T18:42:47.713Z,24.70
2019-05-20T18:45:17.454Z,25.77
2019-05-20T18:47:47.054Z,25.30
2019-05-20T18:50:17.768Z,24.70
2019-05-20T18:52:47.590Z,25.57
2019-05-20T18:55:17.362Z,25.10
2019-05-20T18:57:47.202Z,25.30
2019-05-20T19:00:18.286Z,25.90
2019-05-20T19:02:48.081Z,23.70
2019-05-20T19:05:18.269Z,25.13
2019-05-20T19:07:48.243Z,23.27
2019-05-20T19:10:18.947Z,24.87
2019-05-20T19:12:48.549Z,25.47
2019-05-20T19:15:18.386Z,27.50
2019-05-20T19:17:48.510Z,26.60
2019-05-20T19:20:18.312Z,25.23
2019-05-20T19:22:49.080Z,26.87
2019-05-20T19:25:18.972Z,26.73
2019-05-20T19:27:48.551Z,28.53
2019-05-20T19:30:18.813Z,25.97
2019-05-20T19:32:48.553Z,29.20
2019-05-20T19:35:18.250Z,26.53
2019-05-20T19:37:47.881Z,28.47
2019-05-20T19:40:18.082Z,27.70
2019-05-20T19:42:48.812Z,30.87
2019-05-20T19:45:18.456Z,30.57
2019-05-20T19:47:48.528Z,29.73
2019-05-20T19:50:18.489Z,30.07
2019-05-20T19:52:48.123Z,32.27
2019-05-20T19:55:19.005Z,32.50
2019-05-20T19:57:51.420Z,30.87
2019-05-20T20:00:21.195Z,32.43
2019-05-20T20:02:52.511Z,35.73
2019-05-20T20:05:23.029Z,33.03
2019-05-20T20:07:53.280Z,34.50
2019-05-20T20:10:23.805Z,32.50
2019-05-20T20:12:53.654Z,32.77
2019-05-20T20:15:23.669Z,31.00
2019-05-20T20:17:53.525Z,33.87
2019-05-20T20:20:23.050Z,36.83
2019-05-20T20:22:52.911Z,34.13
2019-05-20T20:25:22.519Z,32.30
2019-05-20T20:27:52.347Z,33.00
2019-05-20T20:30:21.836Z,34.23
2019-05-20T20:32:51.552Z,33.67
2019-05-20T20:35:21.239Z,33.67
2019-05-20T20:37:50.768Z,33.50
2019-05-20T20:40:20.545Z,35.30
2019-05-20T20:42:50.156Z,33.73
2019-05-20T20:45:19.726Z,33.20
2019-05-20T20:47:49.257Z,34.30
2019-05-20T20:50:19.057Z,35.50
2019-05-20T20:52:48.737Z,36.63
2019-05-20T20:55:20.337Z,34.50
2019-05-20T20:57:49.989Z,31.80
2019-05-20T21:00:19.570Z,34.60
2019-05-20T21:02:53.172Z,35.23
2019-05-20T21:05:20.522Z,34.13
2019-05-20T21:07:51.726Z,31.67
2019-05-20T21:10:21.613Z,32.60
2019-05-20T21:12:51.177Z,33.73
2019-05-20T21:15:20.783Z,33.87
2019-05-20T21:17:50.433Z,35.80
2019-05-20T21:20:19.956Z,35.23
2019-05-20T21:22:49.607Z,32.93
2019-05-20T21:25:19.238Z,33.87
2019-05-20T21:27:49.868Z,34.90
2019-05-20T21:30:19.511Z,34.73
2019-05-20T21:32:49.277Z,33.77
2019-05-20T21:35:18.863Z,32.73
2019-05-20T21:37:48.366Z,34.37
2019-05-20T21:40:17.915Z,34.30
2019-05-20T21:42:47.488Z,35.07
2019-05-20T21:45:17.023Z,33.53
2019-05-20T21:47:46.682Z,33.63
2019-05-20T21:50:17.356Z,30.37
2019-05-20T21:52:46.995Z,31.83
2019-05-20T21:55:16.542Z,28.60
2019-05-20T21:57:46.078Z,28.40
2019-05-20T22:00:29.345Z,26.47
2019-05-20T22:02:59.093Z,25.40
2019-05-20T22:05:28.615Z,23.80
2019-05-20T22:07:58.414Z,23.73
2019-05-20T22:10:28.006Z,21.70
2019-05-20T22:12:57.513Z,22.87
2019-05-20T22:15:27.013Z,21.87
2019-05-20T22:17:56.629Z,22.90
2019-05-20T22:20:26.659Z,21.23
2019-05-20T22:23:16.262Z,23.00
2019-05-20T22:25:47.502Z,24.40
2019-05-20T22:28:17.068Z,24.07
2019-05-20T22:30:46.732Z,24.40
2019-05-20T22:33:16.268Z,23.50
2019-05-20T22:35:45.808Z,25.07
2019-05-20T22:38:15.315Z,27.20
2019-05-20T22:40:45.030Z,24.60
2019-05-20T22:43:14.537Z,25.53
2019-05-20T22:45:44.208Z,24.43
2019-05-20T22:48:13.813Z,23.87
2019-05-20T22:50:43.330Z,23.20
2019-05-20T22:53:12.938Z,24.10
2019-05-20T22:55:43.170Z,22.73
2019-05-20T22:58:12.675Z,22.10
2019-05-20T23:00:42.215Z,20.80
2019-05-20T23:03:11.849Z,19.93
2019-05-20T23:05:41.425Z,20.17
2019-05-20T23:08:10.953Z,21.67
2019-05-20T23:10:40.553Z,22.13
2019-05-20T23:13:10.081Z,22.07
2019-05-20T23:15:39.670Z,21.23
2019-05-20T23:18:09.249Z,22.60
2019-05-20T23:20:38.811Z,22.23
2019-05-20T23:23:08.413Z,22.87
2019-05-20T23:25:37.984Z,24.63
2019-05-20T23:28:07.574Z,24.20
2019-05-20T23:30:37.115Z,25.13
2019-05-20T23:33:06.632Z,21.90
2019-05-20T23:35:36.176Z,23.67
2019-05-20T23:38:05.982Z,22.40
2019-05-20T23:40:35.499Z,24.33
2019-05-20T23:43:05.079Z,23.90
2019-05-20T23:45:34.602Z,25.80
2019-05-20T23:48:04.182Z,23.00
2019-05-20T23:50:33.700Z,26.00
2019-05-20T23:53:03.221Z,24.37
2019-05-20T23:55:33.734Z,24.30
2019-05-20T23:58:03.245Z,24.73
